createdAt,value
2019-01-17T00:01:15.327Z,1.10
2019-01-17T00:03:45.408Z,1.10
2019-01-17T00:06:18.405Z,1.20
2019-01-17T00:08:54.411Z,1.20
2019-01-17T00:11:33.168Z,1.20
2019-01-17T00:14:14.796Z,1.30
2019-01-17T00:17:01.200Z,1.20
2019-01-17T00:19:34.007Z,1.20
2019-01-17T00:22:04.084Z,1.20
2019-01-17T00:24:36.907Z,1.20
2019-01-17T00:27:23.081Z,1.20
2019-01-17T00:29:59.097Z,1.10
2019-01-17T00:32:29.179Z,1.20
2019-01-17T00:35:08.088Z,1.20
2019-01-17T00:37:41.096Z,1.20
2019-01-17T00:40:22.341Z,1.20
2019-01-17T00:42:55.076Z,1.20
2019-01-17T00:45:25.178Z,1.10
2019-01-17T00:48:07.148Z,1.10
2019-01-17T00:50:43.225Z,1.10
2019-01-17T00:53:28.082Z,1.10
2019-01-17T00:55:58.120Z,1.10
2019-01-17T00:58:28.193Z,1.10
2019-01-17T01:00:58.233Z,1.10
2019-01-17T01:03:46.414Z,1.10
2019-01-17T01:06:22.236Z,1.10
2019-01-17T01:09:04.298Z,1.20
2019-01-17T01:11:37.052Z,1.10
2019-01-17T01:14:13.146Z,1.20
2019-01-17T01:16:55.206Z,1.20
2019-01-17T01:19:36.806Z,1.10
2019-01-17T01:22:22.769Z,1.20
2019-01-17T01:25:04.585Z,1.20
2019-01-17T01:27:46.510Z,1.30
2019-01-17T01:30:35.417Z,1.40
2019-01-17T01:33:05.501Z,1.40
2019-01-17T01:35:41.589Z,1.50
2019-01-17T01:38:20.548Z,1.50
2019-01-17T01:40:53.403Z,1.50
2019-01-17T01:43:39.493Z,1.60
2019-01-17T01:46:18.395Z,1.60
2019-01-17T01:48:53.893Z,1.70
2019-01-17T01:51:23.953Z,1.80
2019-01-17T01:53:52.385Z,1.80
2019-01-17T01:56:20.831Z,1.90
2019-01-17T01:58:49.256Z,2.00
2019-01-17T02:01:17.727Z,2.00
2019-01-17T02:03:46.124Z,2.20
2019-01-17T02:06:14.546Z,2.30
2019-01-17T02:08:42.957Z,2.30
2019-01-17T02:11:11.446Z,2.40
2019-01-17T02:13:40.208Z,2.50
2019-01-17T02:16:08.620Z,2.50
2019-01-17T02:18:37.021Z,2.60
2019-01-17T02:21:05.450Z,2.60
2019-01-17T02:23:33.849Z,2.60
2019-01-17T02:26:02.273Z,2.70
2019-01-17T02:28:30.699Z,2.80
2019-01-17T02:30:59.180Z,2.80
2019-01-17T02:33:27.589Z,2.90
2019-01-17T02:35:56.037Z,2.90
2019-01-17T02:38:24.520Z,3.00
2019-01-17T02:40:52.919Z,3.00
2019-01-17T02:43:21.396Z,3.00
2019-01-17T02:45:49.776Z,3.00
2019-01-17T02:48:18.208Z,3.00
2019-01-17T02:50:46.693Z,3.00
2019-01-17T02:53:15.090Z,3.10
2019-01-17T02:55:43.512Z,3.10
2019-01-17T02:58:11.938Z,3.10
2019-01-17T03:00:40.357Z,3.00
2019-01-17T03:03:08.769Z,3.10
2019-01-17T03:05:37.222Z,3.00
2019-01-17T03:08:05.720Z,3.00
2019-01-17T03:10:34.143Z,3.10
2019-01-17T03:13:02.590Z,3.10
2019-01-17T03:15:30.992Z,3.10
2019-01-17T03:17:59.486Z,3.10
2019-01-17T03:20:27.912Z,3.10
2019-01-17T03:22:56.345Z,3.10
2019-01-17T03:25:24.762Z,3.10
2019-01-17T03:27:53.173Z,3.20
2019-01-17T03:30:21.639Z,3.20
2019-01-17T03:32:50.054Z,3.20
2019-01-17T03:35:18.634Z,3.20
2019-01-17T03:37:47.185Z,3.20
2019-01-17T03:40:16.108Z,3.20
2019-01-17T03:42:44.540Z,3.20
2019-01-17T03:45:14.056Z,3.30
2019-01-17T03:47:42.512Z,3.20
2019-01-17T03:50:13.710Z,3.20
2019-01-17T03:52:42.332Z,3.00
2019-01-17T03:55:14.046Z,3.00
2019-01-17T03:57:42.557Z,2.90
2019-01-17T04:00:14.282Z,2.90
2019-01-17T04:02:42.760Z,2.90
2019-01-17T04:05:11.354Z,2.90
2019-01-17T04:07:39.897Z,2.90
2019-01-17T04:10:11.617Z,2.90
2019-01-17T04:12:40.058Z,2.90
2019-01-17T04:15:10.484Z,2.90
2019-01-17T04:17:38.890Z,2.90
2019-01-17T04:20:13.319Z,2.80
2019-01-17T04:22:41.980Z,2.80
2019-01-17T04:25:10.584Z,2.70
2019-01-17T04:27:39.295Z,2.70
2019-01-17T04:30:10.977Z,2.60
2019-01-17T04:32:39.415Z,2.60
2019-01-17T04:35:07.951Z,2.60
2019-01-17T04:37:36.394Z,2.70
2019-01-17T04:40:08.009Z,2.70
2019-01-17T04:42:36.464Z,2.60
2019-01-17T04:45:06.439Z,2.60
2019-01-17T04:47:34.908Z,2.70
2019-01-17T04:50:04.410Z,2.60
2019-01-17T04:52:32.909Z,2.60
2019-01-17T04:55:05.305Z,2.50
2019-01-17T04:57:32.026Z,2.50
2019-01-17T05:00:04.894Z,2.40
2019-01-17T05:02:33.332Z,2.40
2019-01-17T05:05:01.973Z,2.40
2019-01-17T05:07:30.350Z,2.40
2019-01-17T05:09:58.818Z,2.40
2019-01-17T05:12:27.229Z,2.40
2019-01-17T05:14:55.710Z,2.50
2019-01-17T05:17:24.178Z,2.60
2019-01-17T05:19:52.670Z,2.60
2019-01-17T05:22:21.113Z,2.60
2019-01-17T05:24:49.570Z,2.60
2019-01-17T05:27:18.024Z,2.60
2019-01-17T05:29:46.435Z,2.60
2019-01-17T05:32:14.902Z,2.60
2019-01-17T05:34:43.338Z,2.70
2019-01-17T05:37:11.818Z,2.60
2019-01-17T05:39:40.335Z,2.70
2019-01-17T05:42:08.824Z,2.70
2019-01-17T05:44:37.272Z,2.70
2019-01-17T05:47:05.845Z,2.80
2019-01-17T05:49:34.374Z,2.80
2019-01-17T05:52:04.922Z,2.80
2019-01-17T05:54:34.014Z,2.80
2019-01-17T05:57:02.474Z,2.80
2019-01-17T05:59:30.861Z,2.80
2019-01-17T06:01:59.332Z,2.80
2019-01-17T06:04:27.858Z,2.80
2019-01-17T06:06:56.398Z,2.80
2019-01-17T06:09:24.910Z,2.80
2019-01-17T06:11:53.347Z,2.90
2019-01-17T06:14:21.775Z,2.80
2019-01-17T06:16:50.260Z,2.80
2019-01-17T06:19:18.741Z,2.80
2019-01-17T06:21:47.149Z,2.90
2019-01-17T06:24:15.598Z,2.80
2019-01-17T06:26:44.048Z,2.80
2019-01-17T06:29:12.515Z,2.80
2019-01-17T06:31:41.082Z,2.80
2019-01-17T06:34:09.533Z,2.80
2019-01-17T06:36:37.992Z,2.80
2019-01-17T06:39:07.277Z,2.80
2019-01-17T06:41:35.720Z,2.80
2019-01-17T06:44:04.242Z,2.80
2019-01-17T06:46:32.626Z,2.80
2019-01-17T06:49:01.055Z,2.80
2019-01-17T06:51:29.469Z,2.80
2019-01-17T06:53:57.883Z,2.90
2019-01-17T06:56:26.342Z,2.80
2019-01-17T06:58:54.770Z,2.90
2019-01-17T07:01:23.286Z,2.90
2019-01-17T07:03:51.693Z,2.90
2019-01-17T07:06:20.113Z,2.90
2019-01-17T07:08:48.555Z,3.00
2019-01-17T07:11:16.968Z,3.00
2019-01-17T07:13:45.426Z,3.00
2019-01-17T07:16:13.804Z,3.00
2019-01-17T07:18:42.266Z,3.10
2019-01-17T07:21:10.677Z,3.00
2019-01-17T07:23:39.149Z,3.10
2019-01-17T07:26:07.593Z,3.10
2019-01-17T07:28:36.072Z,3.10
2019-01-17T07:31:04.568Z,3.10
2019-01-17T07:33:32.997Z,3.10
2019-01-17T07:36:02.218Z,3.10
2019-01-17T07:38:30.693Z,3.10
2019-01-17T07:40:59.153Z,3.20
2019-01-17T07:43:27.563Z,3.10
2019-01-17T07:45:56.157Z,3.20
2019-01-17T07:48:24.590Z,3.10
2019-01-17T07:50:52.998Z,3.20
2019-01-17T07:53:21.409Z,3.20
2019-01-17T07:55:49.879Z,3.20
2019-01-17T07:58:18.307Z,3.10
2019-01-17T08:00:46.768Z,3.20
2019-01-17T08:03:15.240Z,3.20
2019-01-17T08:05:43.671Z,3.20
2019-01-17T08:08:12.137Z,3.20
2019-01-17T08:10:40.593Z,3.20
2019-01-17T08:13:09.016Z,3.20
2019-01-17T08:15:37.511Z,3.20
2019-01-17T08:18:06.010Z,3.30
2019-01-17T08:20:34.518Z,3.30
2019-01-17T08:23:03.093Z,3.30
2019-01-17T08:25:31.597Z,3.30
2019-01-17T08:28:00.035Z,3.40
2019-01-17T08:30:28.588Z,3.40
2019-01-17T08:32:57.110Z,3.40
2019-01-17T08:35:25.551Z,3.40
2019-01-17T08:37:54.007Z,3.50
2019-01-17T08:40:30.363Z,3.40
2019-01-17T08:42:59.023Z,3.40
2019-01-17T08:45:27.458Z,3.40
2019-01-17T08:47:55.926Z,3.40
2019-01-17T08:50:24.475Z,3.40
2019-01-17T08:52:52.988Z,3.50
2019-01-17T08:55:21.365Z,3.50
2019-01-17T08:57:49.890Z,3.50
2019-01-17T09:00:20.618Z,3.60
2019-01-17T09:02:49.083Z,3.60
2019-01-17T09:05:17.482Z,3.60
2019-01-17T09:07:46.008Z,3.60
2019-01-17T09:10:17.663Z,3.60
2019-01-17T09:12:46.144Z,3.60
2019-01-17T09:15:17.666Z,3.60
2019-01-17T09:17:46.132Z,3.70
2019-01-17T09:20:15.038Z,3.70
2019-01-17T09:22:43.557Z,3.70
2019-01-17T09:25:13.738Z,3.80
2019-01-17T09:27:42.189Z,3.80
2019-01-17T09:30:13.451Z,3.90
2019-01-17T09:32:41.861Z,4.00
2019-01-17T09:35:12.275Z,4.00
2019-01-17T09:37:40.894Z,4.00
2019-01-17T09:40:12.545Z,4.00
2019-01-17T09:42:41.266Z,4.00
2019-01-17T09:45:10.308Z,4.00
2019-01-17T09:47:38.772Z,4.00
2019-01-17T09:50:18.868Z,4.00
2019-01-17T09:52:47.376Z,4.10
2019-01-17T09:55:15.971Z,4.20
2019-01-17T09:57:44.414Z,4.40
2019-01-17T10:00:15.949Z,4.50
2019-01-17T10:02:44.438Z,4.40
2019-01-17T10:05:13.078Z,4.40
2019-01-17T10:07:41.620Z,4.40
2019-01-17T10:10:15.674Z,4.30
2019-01-17T10:12:44.177Z,4.30
2019-01-17T10:15:15.858Z,4.20
2019-01-17T10:17:47.318Z,4.10
2019-01-17T10:20:36.422Z,4.10
2019-01-17T10:23:10.661Z,4.10
2019-01-17T10:25:50.898Z,4.20
2019-01-17T10:28:25.023Z,4.10
2019-01-17T10:30:58.069Z,4.10
2019-01-17T10:33:44.486Z,4.10
2019-01-17T10:36:30.641Z,4.00
2019-01-17T10:39:02.146Z,4.10
2019-01-17T10:41:42.620Z,4.20
2019-01-17T10:44:23.064Z,4.30
2019-01-17T10:47:25.672Z,4.40
2019-01-17T10:50:01.608Z,4.40
2019-01-17T10:52:36.136Z,4.50
2019-01-17T10:55:40.630Z,4.60
2019-01-17T10:58:20.894Z,4.50
2019-01-17T11:01:04.187Z,4.40
2019-01-17T11:04:07.130Z,4.40
2019-01-17T11:06:44.133Z,4.30
2019-01-17T11:09:33.452Z,4.30
2019-01-17T11:12:04.953Z,4.30
2019-01-17T11:14:52.982Z,4.30
2019-01-17T11:17:42.368Z,4.30
2019-01-17T11:20:25.493Z,4.20
2019-01-17T11:23:01.817Z,4.20
2019-01-17T11:25:36.095Z,4.30
2019-01-17T11:28:25.678Z,4.30
2019-01-17T11:31:19.403Z,4.30
2019-01-17T11:34:02.891Z,4.20
2019-01-17T11:37:00.845Z,4.10
2019-01-17T11:39:47.465Z,4.10
2019-01-17T11:42:21.419Z,4.10
2019-01-17T11:44:58.513Z,4.20
2019-01-17T11:47:38.920Z,4.30
2019-01-17T11:50:22.325Z,4.40
2019-01-17T11:53:11.453Z,4.50
2019-01-17T11:55:52.051Z,4.50
2019-01-17T11:58:29.229Z,4.50
2019-01-17T12:01:17.125Z,4.50
2019-01-17T12:03:48.610Z,4.50
2019-01-17T12:06:17.088Z,4.60
2019-01-17T12:08:45.509Z,4.50
2019-01-17T12:11:14.004Z,4.50
2019-01-17T12:13:44.297Z,4.50
2019-01-17T12:16:12.843Z,4.40
2019-01-17T12:18:41.246Z,4.40
2019-01-17T12:21:09.726Z,4.40
2019-01-17T12:23:38.115Z,4.20
2019-01-17T12:26:06.567Z,4.10
2019-01-17T12:28:35.011Z,4.20
2019-01-17T12:31:03.421Z,4.20
2019-01-17T12:33:31.915Z,4.20
2019-01-17T12:36:00.388Z,4.10
2019-01-17T12:38:28.832Z,4.10
2019-01-17T12:40:57.246Z,4.10
2019-01-17T12:43:25.675Z,4.10
2019-01-17T12:45:54.106Z,4.10
2019-01-17T12:48:22.542Z,4.10
2019-01-17T12:50:50.980Z,4.10
2019-01-17T12:53:19.386Z,4.10
2019-01-17T12:55:47.812Z,4.10
2019-01-17T12:58:16.237Z,4.10
2019-01-17T13:00:44.625Z,4.10
2019-01-17T13:03:13.166Z,4.10
2019-01-17T13:05:41.621Z,4.10
2019-01-17T13:08:10.068Z,4.20
2019-01-17T13:10:38.514Z,4.20
2019-01-17T13:13:06.928Z,4.20
2019-01-17T13:15:35.378Z,4.20
2019-01-17T13:18:03.837Z,4.10
2019-01-17T13:20:32.371Z,4.20
2019-01-17T13:23:00.869Z,4.20
2019-01-17T13:25:29.312Z,4.10
2019-01-17T13:27:57.771Z,4.10
2019-01-17T13:30:26.256Z,4.10
2019-01-17T13:32:54.717Z,4.20
2019-01-17T13:35:23.105Z,4.20
2019-01-17T13:37:51.601Z,4.20
2019-01-17T13:40:21.256Z,4.30
2019-01-17T13:42:49.822Z,4.30
2019-01-17T13:45:19.989Z,4.20
2019-01-17T13:47:48.555Z,4.10
2019-01-17T13:50:17.264Z,4.20
2019-01-17T13:52:45.904Z,4.20
2019-01-17T13:55:17.682Z,4.20
2019-01-17T13:57:46.238Z,4.20
2019-01-17T14:00:22.502Z,4.10
2019-01-17T14:02:51.117Z,4.10
2019-01-17T14:05:19.585Z,4.10
2019-01-17T14:07:48.785Z,4.00
2019-01-17T14:10:18.142Z,4.00
2019-01-17T14:12:46.560Z,4.00
2019-01-17T14:15:23.530Z,4.00
2019-01-17T14:17:52.089Z,4.10
2019-01-17T14:20:20.526Z,4.20
2019-01-17T14:22:49.014Z,4.30
2019-01-17T14:25:17.968Z,4.30
2019-01-17T14:27:46.418Z,4.30
2019-01-17T14:30:27.164Z,4.30
2019-01-17T14:32:55.634Z,4.30
2019-01-17T14:35:24.150Z,4.10
2019-01-17T14:37:52.665Z,4.00
2019-01-17T14:40:21.067Z,3.80
2019-01-17T14:42:49.602Z,3.80
2019-01-17T14:45:20.140Z,3.80
2019-01-17T14:47:48.605Z,3.80
2019-01-17T14:50:19.537Z,3.60
2019-01-17T14:52:47.979Z,3.60
2019-01-17T14:55:16.462Z,3.40
2019-01-17T14:57:45.003Z,3.40
2019-01-17T15:00:19.466Z,3.30
2019-01-17T15:02:47.887Z,3.40
2019-01-17T15:05:16.498Z,3.50
2019-01-17T15:07:44.982Z,3.50
2019-01-17T15:10:19.562Z,3.60
2019-01-17T15:12:48.058Z,3.50
2019-01-17T15:15:16.658Z,3.40
2019-01-17T15:17:45.077Z,3.30
2019-01-17T15:20:20.562Z,3.30
2019-01-17T15:22:51.029Z,3.20
2019-01-17T15:25:19.484Z,3.20
2019-01-17T15:27:47.932Z,3.10
2019-01-17T15:30:21.869Z,3.10
2019-01-17T15:32:50.573Z,3.10
2019-01-17T15:35:19.037Z,3.00
2019-01-17T15:37:47.596Z,2.90
2019-01-17T15:40:23.929Z,2.90
2019-01-17T15:42:52.372Z,2.90
2019-01-17T15:45:20.927Z,2.90
2019-01-17T15:47:49.428Z,2.90
2019-01-17T15:50:19.213Z,3.00
2019-01-17T15:52:47.680Z,3.00
2019-01-17T15:55:17.282Z,2.90
2019-01-17T15:57:45.777Z,2.90
2019-01-17T16:00:30.760Z,2.90
2019-01-17T16:02:59.278Z,2.90
2019-01-17T16:05:27.709Z,2.80
2019-01-17T16:07:56.146Z,2.80
2019-01-17T16:10:24.566Z,2.80
2019-01-17T16:12:53.008Z,2.80
2019-01-17T16:15:23.779Z,2.90
2019-01-17T16:17:52.301Z,3.00
2019-01-17T16:20:20.732Z,3.00
2019-01-17T16:22:49.350Z,3.00
2019-01-17T16:25:17.820Z,3.10
2019-01-17T16:27:52.770Z,3.20
2019-01-17T16:30:22.210Z,3.20
2019-01-17T16:32:50.648Z,3.20
2019-01-17T16:35:19.052Z,3.20
2019-01-17T16:37:47.607Z,3.20
2019-01-17T16:40:16.189Z,3.20
2019-01-17T16:42:44.599Z,3.10
2019-01-17T16:45:18.390Z,3.10
2019-01-17T16:47:46.847Z,3.10
2019-01-17T16:50:17.339Z,3.00
2019-01-17T16:52:45.830Z,3.10
2019-01-17T16:55:15.021Z,2.80
2019-01-17T16:57:48.910Z,2.40
2019-01-17T17:00:17.718Z,2.00
2019-01-17T17:02:48.089Z,1.60
2019-01-17T17:05:16.554Z,1.60
2019-01-17T17:07:44.992Z,1.50
2019-01-17T17:10:15.054Z,1.50
2019-01-17T17:12:43.563Z,1.50
2019-01-17T17:15:12.297Z,1.50
2019-01-17T17:17:40.694Z,1.60
2019-01-17T17:20:12.589Z,1.70
2019-01-17T17:22:41.037Z,1.80
2019-01-17T17:25:09.479Z,1.80
2019-01-17T17:27:37.971Z,1.80
2019-01-17T17:30:18.028Z,1.80
2019-01-17T17:32:46.452Z,1.80
2019-01-17T17:35:15.152Z,1.90
2019-01-17T17:37:43.615Z,1.90
2019-01-17T17:40:18.220Z,2.00
2019-01-17T17:42:46.748Z,2.00
2019-01-17T17:45:15.436Z,2.10
2019-01-17T17:47:44.921Z,2.20
2019-01-17T17:50:15.630Z,2.30
2019-01-17T17:52:44.037Z,2.30
2019-01-17T17:55:14.488Z,2.40
2019-01-17T17:57:43.010Z,2.50
2019-01-17T18:00:19.036Z,2.40
2019-01-17T18:02:48.293Z,2.20
2019-01-17T18:05:16.815Z,1.90
2019-01-17T18:07:45.224Z,1.50
2019-01-17T18:10:15.793Z,1.40
2019-01-17T18:12:44.263Z,1.30
2019-01-17T18:15:19.506Z,1.20
2019-01-17T18:17:48.094Z,1.20
2019-01-17T18:20:17.342Z,1.20
2019-01-17T18:22:45.749Z,1.30
2019-01-17T18:25:14.383Z,1.40
2019-01-17T18:27:42.925Z,1.40
2019-01-17T18:30:20.416Z,1.40
2019-01-17T18:32:48.921Z,1.40
2019-01-17T18:35:17.455Z,1.40
2019-01-17T18:37:45.953Z,1.40
2019-01-17T18:40:19.006Z,1.40
2019-01-17T18:42:47.513Z,1.40
2019-01-17T18:45:18.635Z,1.40
2019-01-17T18:47:47.141Z,1.40
2019-01-17T18:50:18.821Z,1.30
2019-01-17T18:52:48.359Z,1.30
2019-01-17T18:55:17.590Z,1.30
2019-01-17T18:57:46.200Z,1.30
2019-01-17T19:00:22.461Z,1.30
2019-01-17T19:02:51.246Z,1.30
2019-01-17T19:05:20.137Z,1.30
2019-01-17T19:07:48.697Z,1.30
2019-01-17T19:10:18.701Z,1.30
2019-01-17T19:12:47.159Z,1.30
2019-01-17T19:15:30.073Z,1.30
2019-01-17T19:17:58.633Z,1.30
2019-01-17T19:20:27.144Z,1.20
2019-01-17T19:22:55.579Z,1.30
2019-01-17T19:25:24.046Z,1.20
2019-01-17T19:27:52.493Z,1.20
2019-01-17T19:30:26.129Z,1.20
2019-01-17T19:32:54.707Z,1.20
2019-01-17T19:35:23.214Z,1.20
2019-01-17T19:37:51.842Z,1.10
2019-01-17T19:40:25.878Z,1.20
2019-01-17T19:42:54.392Z,1.20
2019-01-17T19:45:22.925Z,1.20
2019-01-17T19:47:51.485Z,1.20
2019-01-17T19:50:28.359Z,1.20
2019-01-17T19:52:59.221Z,1.20
2019-01-17T19:55:27.789Z,1.20
2019-01-17T19:57:56.656Z,1.20
2019-01-17T20:00:25.357Z,1.20
2019-01-17T20:02:53.944Z,1.20
2019-01-17T20:05:27.802Z,1.10
2019-01-17T20:07:56.484Z,1.20
2019-01-17T20:10:27.817Z,1.20
2019-01-17T20:12:56.447Z,1.20
2019-01-17T20:15:25.020Z,1.10
2019-01-17T20:17:54.742Z,1.10
2019-01-17T20:20:23.264Z,1.00
2019-01-17T20:22:51.792Z,1.10
2019-01-17T20:25:20.294Z,1.10
2019-01-17T20:27:48.908Z,1.10
2019-01-17T20:30:25.308Z,1.10
2019-01-17T20:32:54.515Z,1.10
2019-01-17T20:35:22.950Z,1.10
2019-01-17T20:37:51.358Z,1.10
2019-01-17T20:40:21.576Z,1.00
2019-01-17T20:42:50.057Z,1.00
2019-01-17T20:45:18.640Z,1.00
2019-01-17T20:47:47.160Z,1.00
2019-01-17T20:50:21.126Z,0.90
2019-01-17T20:52:49.602Z,0.90
2019-01-17T20:55:18.085Z,0.90
2019-01-17T20:57:47.749Z,1.00
2019-01-17T21:00:28.360Z,0.90
2019-01-17T21:02:56.908Z,1.00
2019-01-17T21:05:26.188Z,1.00
2019-01-17T21:07:54.813Z,0.90
2019-01-17T21:10:23.330Z,0.90
2019-01-17T21:12:51.807Z,0.90
2019-01-17T21:15:20.265Z,0.90
2019-01-17T21:17:48.950Z,0.90
2019-01-17T21:20:18.726Z,0.90
2019-01-17T21:22:47.477Z,0.90
2019-01-17T21:25:17.863Z,0.90
2019-01-17T21:27:46.360Z,0.90
2019-01-17T21:30:17.870Z,0.80
2019-01-17T21:32:46.412Z,0.90
2019-01-17T21:35:14.952Z,0.90
2019-01-17T21:37:43.420Z,0.90
2019-01-17T21:40:14.638Z,0.90
2019-01-17T21:42:43.043Z,0.80
2019-01-17T21:45:14.322Z,0.90
2019-01-17T21:47:42.723Z,0.90
2019-01-17T21:50:14.157Z,0.90
2019-01-17T21:52:42.657Z,0.80
2019-01-17T21:55:11.283Z,0.80
2019-01-17T21:57:39.762Z,0.70
2019-01-17T22:00:11.303Z,0.60
2019-01-17T22:02:39.798Z,0.60
2019-01-17T22:05:08.356Z,0.60
2019-01-17T22:07:36.832Z,0.60
2019-01-17T22:10:08.394Z,0.60
2019-01-17T22:12:36.945Z,0.70
2019-01-17T22:15:08.432Z,0.70
2019-01-17T22:17:36.855Z,0.70
2019-01-17T22:20:08.716Z,0.80
2019-01-17T22:22:37.150Z,0.80
2019-01-17T22:25:08.346Z,0.80
2019-01-17T22:27:36.763Z,0.80
2019-01-17T22:30:08.833Z,0.40
2019-01-17T22:32:37.280Z,0.00
2019-01-17T22:35:06.232Z,-0.10
2019-01-17T22:37:34.701Z,-0.10
2019-01-17T22:40:03.210Z,-0.10
2019-01-17T22:42:31.665Z,-0.20
2019-01-17T22:45:00.203Z,-0.20
2019-01-17T22:47:28.731Z,-0.20
2019-01-17T22:49:57.192Z,-0.20
2019-01-17T22:52:25.751Z,-0.30
2019-01-17T22:54:54.178Z,-0.30
2019-01-17T22:57:22.640Z,-0.30
2019-01-17T22:59:51.092Z,-0.30
2019-01-17T23:02:19.585Z,-0.30
2019-01-17T23:04:48.045Z,-0.40
2019-01-17T23:07:16.459Z,-0.40
2019-01-17T23:09:44.894Z,-0.40
2019-01-17T23:12:13.419Z,-0.40
2019-01-17T23:14:41.832Z,-0.50
2019-01-17T23:17:10.234Z,-0.50
2019-01-17T23:19:38.715Z,-0.50
2019-01-17T23:22:07.388Z,-0.50
2019-01-17T23:24:35.824Z,-0.40
2019-01-17T23:27:04.321Z,-0.50
2019-01-17T23:29:32.853Z,-0.40
2019-01-17T23:32:01.278Z,-0.30
2019-01-17T23:34:29.789Z,-0.20
2019-01-17T23:37:00.561Z,-0.20
2019-01-17T23:39:29.016Z,-0.20
2019-01-17T23:41:57.504Z,-0.20
2019-01-17T23:44:25.986Z,-0.10
2019-01-17T23:46:54.417Z,-0.10
2019-01-17T23:49:24.869Z,-0.10
2019-01-17T23:51:53.279Z,-0.10
2019-01-17T23:54:21.809Z,-0.10
2019-01-17T23:56:50.256Z,-0.20
2019-01-17T23:59:22.652Z,-0.30
